Time;durP1;ratioP1;P1;durP2;ratioP2;P2;SDS_P1;SDS_P2;PMS_P1;PMS_P2;Temp;Humidity;BMP_temperature;BMP_pressure;BME280_temperature;BME280_humidity;BME280_pressure;Samples;Min_cycle;Max_cycle;Signal;HPM_P1;HPM_P2
2022/11/14 00:00:07;;;;;;;27.63;16.15;;;;;;;;;;5126225;27;20045;-64
2022/11/14 00:02:34;;;;;;;27.73;15.82;;;;;;;;;;5122776;28;20062;-64
2022/11/14 00:05:00;;;;;;;30.67;17.17;;;;;;;;;;5124150;27;20465;-64
2022/11/14 00:07:29;;;;;;;29.45;17.38;;;;;;;;;;5122146;28;20427;-64
2022/11/14 00:09:55;;;;;;;28.08;17.80;;;;;;;;;;5117610;28;20477;-64
2022/11/14 00:12:21;;;;;;;29.80;16.42;;;;;;;;;;5102357;28;20043;-64
2022/11/14 00:14:47;;;;;;;29.83;17.25;;;;;;;;;;5120659;28;20401;-64
2022/11/14 00:17:14;;;;;;;31.45;17.45;;;;;;;;;;5106108;28;20035;-64
2022/11/14 00:19:40;;;;;;;30.58;17.13;;;;;;;;;;5126836;28;20084;-64
2022/11/14 00:22:06;;;;;;;27.20;16.95;;;;;;;;;;5105278;28;20477;-64
2022/11/14 00:24:32;;;;;;;27.83;17.10;;;;;;;;;;5123038;28;20039;-64
2022/11/14 00:26:58;;;;;;;26.20;15.45;;;;;;;;;;5106815;28;20488;-64
2022/11/14 00:29:24;;;;;;;29.33;16.10;;;;;;;;;;5116525;28;20366;-64
2022/11/14 00:31:50;;;;;;;29.63;16.20;;;;;;;;;;5117980;28;20039;-64
2022/11/14 00:34:16;;;;;;;27.50;16.17;;;;;;;;;;5122520;28;20386;-64
2022/11/14 00:36:42;;;;;;;31.08;17.55;;;;;;;;;;5122797;28;20047;-64
2022/11/14 00:39:12;;;;;;;27.58;17.17;;;;;;;;;;5120437;28;20040;-64
2022/11/14 00:41:39;;;;;;;28.15;15.18;;;;;;;;;;5121404;28;20039;-64
2022/11/14 00:44:05;;;;;;;33.33;17.50;;;;;;;;;;5113232;28;20184;-64
2022/11/14 00:46:31;;;;;;;29.23;16.75;;;;;;;;;;5121199;28;20043;-64
2022/11/14 00:48:57;;;;;;;30.17;17.42;;;;;;;;;;5123814;28;20350;-64
2022/11/14 00:51:24;;;;;;;31.75;18.55;;;;;;;;;;5101512;28;20066;-64
2022/11/14 00:53:50;;;;;;;31.88;18.77;;;;;;;;;;5124716;28;20046;-64
2022/11/14 00:56:16;;;;;;;26.27;17.13;;;;;;;;;;5123944;28;20047;-64
2022/11/14 00:58:42;;;;;;;29.05;16.52;;;;;;;;;;5121478;28;20034;-64
2022/11/14 01:01:08;;;;;;;27.58;17.17;;;;;;;;;;5120975;28;20035;-64
2022/11/14 01:03:34;;;;;;;28.42;15.57;;;;;;;;;;5122607;28;20047;-64
2022/11/14 01:06:04;;;;;;;29.35;17.92;;;;;;;;;;5115615;28;20035;-64
2022/11/14 01:08:30;;;;;;;30.45;17.60;;;;;;;;;;5116629;28;20056;-64
2022/11/14 01:10:56;;;;;;;28.92;16.83;;;;;;;;;;5118305;28;20408;-64
2022/11/14 01:13:22;;;;;;;25.30;16.67;;;;;;;;;;5122343;28;20043;-64
2022/11/14 01:15:49;;;;;;;30.98;17.25;;;;;;;;;;5118062;27;20042;-64
2022/11/14 01:18:17;;;;;;;29.88;16.33;;;;;;;;;;5122483;27;20495;-64
2022/11/14 01:20:44;;;;;;;30.67;17.48;;;;;;;;;;5124198;27;20473;-64
2022/11/14 01:23:11;;;;;;;24.50;15.68;;;;;;;;;;5126678;27;20038;-64
2022/11/14 01:25:38;;;;;;;27.73;17.65;;;;;;;;;;5125297;27;20411;-64
2022/11/14 01:28:08;;;;;;;26.55;16.42;;;;;;;;;;5109462;27;20412;-64
2022/11/14 01:30:35;;;;;;;29.40;16.40;;;;;;;;;;5117560;27;20041;-64
2022/11/14 01:33:01;;;;;;;25.42;16.30;;;;;;;;;;5111445;27;20568;-64
2022/11/14 01:35:27;;;;;;;25.60;15.43;;;;;;;;;;5090801;27;20035;-64
2022/11/14 01:37:53;;;;;;;26.85;15.77;;;;;;;;;;5115203;27;20036;-65
2022/11/14 01:40:19;;;;;;;27.83;16.33;;;;;;;;;;5108733;27;20114;-64
2022/11/14 01:43:21;;;;;;;25.40;16.85;;;;;;;;;;5127494;27;20096;-64
2022/11/14 01:45:56;;;;;;;27.25;16.27;;;;;;;;;;5045249;28;20053;-64
2022/11/14 01:48:35;;;;;;;24.88;15.88;;;;;;;;;;5093336;27;20059;-64
2022/11/14 01:51:25;;;;;;;25.17;16.23;;;;;;;;;;5125553;27;20114;-64
2022/11/14 01:53:53;;;;;;;25.55;15.70;;;;;;;;;;5114217;27;20543;-64
2022/11/14 01:56:22;;;;;;;24.98;14.57;;;;;;;;;;5125043;27;20393;-64
2022/11/14 01:58:54;;;;;;;26.75;16.35;;;;;;;;;;5118934;27;20047;-64
2022/11/14 02:01:20;;;;;;;24.25;16.00;;;;;;;;;;5120540;27;20042;-64
2022/11/14 02:03:48;;;;;;;26.13;15.40;;;;;;;;;;5128403;27;20042;-64
2022/11/14 02:06:16;;;;;;;28.88;17.08;;;;;;;;;;5087604;27;20039;-64
2022/11/14 02:08:43;;;;;;;30.48;18.75;;;;;;;;;;5117642;27;20468;-64
2022/11/14 02:11:12;;;;;;;25.00;16.13;;;;;;;;;;5092529;27;20048;-64
2022/11/14 02:13:38;;;;;;;35.05;19.80;;;;;;;;;;5126519;27;20035;-64
2022/11/14 02:16:05;;;;;;;27.55;18.27;;;;;;;;;;5126740;27;20071;-64
2022/11/14 02:18:31;;;;;;;25.63;15.55;;;;;;;;;;5124564;27;20132;-64
2022/11/14 02:20:58;;;;;;;26.08;17.42;;;;;;;;;;5118994;27;20040;-64
2022/11/14 02:23:25;;;;;;;26.13;16.83;;;;;;;;;;5121201;27;20097;-64
2022/11/14 02:25:51;;;;;;;30.17;18.98;;;;;;;;;;5115368;27;20038;-64
2022/11/14 02:28:19;;;;;;;31.50;17.58;;;;;;;;;;5127611;27;20476;-64
2022/11/14 02:30:45;;;;;;;30.55;19.58;;;;;;;;;;5122087;27;20035;-64
2022/11/14 02:33:11;;;;;;;25.40;17.60;;;;;;;;;;5105899;28;20046;-64
2022/11/14 02:35:37;;;;;;;30.17;19.92;;;;;;;;;;5122473;27;20506;-64
2022/11/14 02:38:04;;;;;;;30.23;18.58;;;;;;;;;;5128846;27;20043;-64
2022/11/14 02:40:30;;;;;;;30.67;20.10;;;;;;;;;;5125810;27;20035;-64
2022/11/14 02:42:56;;;;;;;32.35;18.95;;;;;;;;;;5125403;27;20492;-64
2022/11/14 02:45:22;;;;;;;34.00;20.13;;;;;;;;;;5125462;27;20123;-64
2022/11/14 02:47:48;;;;;;;35.85;21.63;;;;;;;;;;5118866;27;20039;-64
2022/11/14 02:50:14;;;;;;;35.95;22.42;;;;;;;;;;5125692;27;20180;-64
2022/11/14 02:52:41;;;;;;;35.58;21.60;;;;;;;;;;5105597;27;20039;-64
2022/11/14 02:55:07;;;;;;;36.40;22.30;;;;;;;;;;5121949;27;20031;-64
2022/11/14 02:57:33;;;;;;;33.92;20.98;;;;;;;;;;5118933;27;20531;-64
2022/11/14 02:59:59;;;;;;;36.65;22.73;;;;;;;;;;5121229;27;20348;-64
2022/11/14 03:02:25;;;;;;;34.50;21.50;;;;;;;;;;5098638;27;20044;-64
2022/11/14 03:04:51;;;;;;;32.05;20.38;;;;;;;;;;5120825;27;20046;-64
2022/11/14 03:07:18;;;;;;;32.30;20.60;;;;;;;;;;5126707;27;20058;-64
2022/11/14 03:09:44;;;;;;;33.25;21.27;;;;;;;;;;5125796;27;20047;-64
2022/11/14 03:12:10;;;;;;;39.53;22.95;;;;;;;;;;5113827;27;20035;-64
2022/11/14 03:14:36;;;;;;;35.35;22.77;;;;;;;;;;5119826;27;20040;-64
2022/11/14 03:17:02;;;;;;;44.03;27.65;;;;;;;;;;5107500;27;20476;-65
2022/11/14 03:19:28;;;;;;;40.95;25.35;;;;;;;;;;5123546;27;20126;-64
2022/11/14 03:21:54;;;;;;;50.33;29.25;;;;;;;;;;5107331;27;20037;-64
2022/11/14 03:24:21;;;;;;;44.80;27.75;;;;;;;;;;5107678;27;20561;-64
2022/11/14 03:26:47;;;;;;;44.90;27.08;;;;;;;;;;5125737;27;20066;-64
2022/11/14 03:29:13;;;;;;;43.08;26.70;;;;;;;;;;5124671;27;20122;-64
2022/11/14 03:31:39;;;;;;;44.90;27.15;;;;;;;;;;5122875;27;20058;-64
2022/11/14 03:34:05;;;;;;;47.13;28.77;;;;;;;;;;5117902;27;20039;-64
2022/11/14 03:36:31;;;;;;;52.25;31.02;;;;;;;;;;5114028;27;20038;-64
2022/11/14 03:38:57;;;;;;;49.38;29.85;;;;;;;;;;5123776;27;20057;-64
2022/11/14 03:41:23;;;;;;;47.25;29.55;;;;;;;;;;5117661;27;20493;-64
2022/11/14 03:43:49;;;;;;;48.80;30.35;;;;;;;;;;5120251;27;20082;-64
2022/11/14 03:46:16;;;;;;;50.95;30.10;;;;;;;;;;5120146;27;20656;-64
2022/11/14 03:48:42;;;;;;;44.20;27.90;;;;;;;;;;5125475;27;20039;-64
2022/11/14 03:51:08;;;;;;;52.42;31.75;;;;;;;;;;5118291;27;20112;-64
2022/11/14 03:53:34;;;;;;;49.05;28.73;;;;;;;;;;5107621;28;20076;-64
2022/11/14 03:56:00;;;;;;;49.15;31.45;;;;;;;;;;5122313;27;20043;-64
2022/11/14 03:58:26;;;;;;;48.00;29.23;;;;;;;;;;5119473;27;20073;-64
2022/11/14 04:00:54;;;;;;;56.42;33.33;;;;;;;;;;5118069;27;20038;-64
2022/11/14 04:03:21;;;;;;;46.30;28.63;;;;;;;;;;5125506;28;20039;-64
2022/11/14 04:05:47;;;;;;;51.65;30.30;;;;;;;;;;5103320;28;20334;-64
2022/11/14 04:08:13;;;;;;;48.65;30.35;;;;;;;;;;5124981;28;20035;-64
2022/11/14 04:10:40;;;;;;;50.17;31.52;;;;;;;;;;5115441;28;20164;-64
2022/11/14 04:13:06;;;;;;;45.90;29.23;;;;;;;;;;5125248;28;20051;-64
2022/11/14 04:15:32;;;;;;;48.92;29.48;;;;;;;;;;5086110;28;20404;-64
2022/11/14 04:17:59;;;;;;;43.70;29.23;;;;;;;;;;5124405;28;20072;-64
2022/11/14 04:20:25;;;;;;;52.03;32.20;;;;;;;;;;5121817;28;20122;-64
2022/11/14 04:22:51;;;;;;;52.83;30.30;;;;;;;;;;5119825;28;20107;-64
2022/11/14 04:25:17;;;;;;;49.92;30.05;;;;;;;;;;5117654;28;20504;-64
2022/11/14 04:27:43;;;;;;;52.13;31.38;;;;;;;;;;5123807;28;20396;-64
2022/11/14 04:30:10;;;;;;;48.88;29.15;;;;;;;;;;5106502;28;20046;-64
2022/11/14 04:32:36;;;;;;;51.88;31.75;;;;;;;;;;5125442;28;20053;-64
2022/11/14 04:35:02;;;;;;;49.97;30.48;;;;;;;;;;5118171;28;20504;-64
2022/11/14 04:37:28;;;;;;;49.08;30.05;;;;;;;;;;5122460;28;20035;-64
2022/11/14 04:39:57;;;;;;;48.65;29.73;;;;;;;;;;5116581;28;20081;-64
2022/11/14 04:42:24;;;;;;;49.42;28.77;;;;;;;;;;5108590;28;20194;-64
2022/11/14 04:44:50;;;;;;;48.17;29.00;;;;;;;;;;5126883;28;20265;-64
2022/11/14 04:47:17;;;;;;;52.30;30.52;;;;;;;;;;5125076;28;20484;-63
2022/11/14 04:49:43;;;;;;;48.35;29.98;;;;;;;;;;5123665;28;20377;-63
2022/11/14 04:52:09;;;;;;;48.25;30.80;;;;;;;;;;5128590;27;20461;-64
2022/11/14 04:54:35;;;;;;;51.60;32.45;;;;;;;;;;5109553;27;20100;-64
2022/11/14 04:57:01;;;;;;;44.30;28.70;;;;;;;;;;5107451;27;20047;-64
2022/11/14 04:59:27;;;;;;;51.70;31.48;;;;;;;;;;5126643;27;20118;-64
2022/11/14 05:01:53;;;;;;;52.78;32.33;;;;;;;;;;5128427;27;20140;-64
2022/11/14 05:04:19;;;;;;;50.03;32.10;;;;;;;;;;5122671;27;20381;-63
2022/11/14 05:06:45;;;;;;;47.35;28.15;;;;;;;;;;5128843;27;20060;-64
2022/11/14 05:09:12;;;;;;;45.38;29.17;;;;;;;;;;5127884;27;20035;-64
2022/11/14 05:11:38;;;;;;;50.47;28.77;;;;;;;;;;5108626;27;20395;-64
2022/11/14 05:14:04;;;;;;;50.90;30.42;;;;;;;;;;5116492;27;20043;-63
2022/11/14 05:16:30;;;;;;;55.55;31.60;;;;;;;;;;5126964;27;20091;-64
2022/11/14 05:18:56;;;;;;;50.92;29.88;;;;;;;;;;5128998;27;20096;-66
2022/11/14 05:21:22;;;;;;;47.47;30.27;;;;;;;;;;5119839;27;20031;-63
2022/11/14 05:23:48;;;;;;;45.60;28.65;;;;;;;;;;5121706;27;20046;-64
2022/11/14 05:26:15;;;;;;;46.65;29.48;;;;;;;;;;5121602;27;20080;-63
2022/11/14 05:28:42;;;;;;;50.28;30.88;;;;;;;;;;5126906;27;20047;-64
2022/11/14 05:31:17;;;;;;;46.80;28.67;;;;;;;;;;5124309;27;20043;-64
2022/11/14 05:33:44;;;;;;;51.30;28.27;;;;;;;;;;5094411;27;20039;-64
2022/11/14 05:36:11;;;;;;;50.28;29.75;;;;;;;;;;5108116;28;20270;-64
2022/11/14 05:38:38;;;;;;;44.45;29.38;;;;;;;;;;5112056;27;20050;-65
2022/11/14 05:41:11;;;;;;;46.80;30.10;;;;;;;;;;5118872;27;20129;-64
2022/11/14 05:43:37;;;;;;;53.92;29.50;;;;;;;;;;5124539;27;20456;-64
2022/11/14 05:46:04;;;;;;;43.53;27.65;;;;;;;;;;5127300;27;20043;-64
2022/11/14 05:48:31;;;;;;;45.58;27.50;;;;;;;;;;5092423;27;20071;-64
2022/11/14 05:50:58;;;;;;;50.55;29.83;;;;;;;;;;5125981;27;20031;-64
2022/11/14 05:53:25;;;;;;;52.25;28.52;;;;;;;;;;5126539;27;20180;-64
2022/11/14 05:55:51;;;;;;;55.65;32.20;;;;;;;;;;5126048;27;20512;-64
2022/11/14 05:58:18;;;;;;;47.92;28.58;;;;;;;;;;5128526;27;20052;-64
2022/11/14 06:00:44;;;;;;;51.20;29.98;;;;;;;;;;5108698;27;20116;-64
2022/11/14 06:03:10;;;;;;;43.88;27.58;;;;;;;;;;5126851;27;20133;-64
2022/11/14 06:05:36;;;;;;;50.40;29.92;;;;;;;;;;5078387;27;20035;-64
2022/11/14 06:08:03;;;;;;;47.40;28.63;;;;;;;;;;5109406;27;20051;-64
2022/11/14 06:10:29;;;;;;;49.58;29.27;;;;;;;;;;5121062;27;20504;-64
2022/11/14 06:12:55;;;;;;;47.28;28.27;;;;;;;;;;5106004;27;20039;-64
2022/11/14 06:15:21;;;;;;;50.00;29.95;;;;;;;;;;5123911;27;20400;-64
2022/11/14 06:17:47;;;;;;;53.78;30.63;;;;;;;;;;5117817;27;20400;-65
2022/11/14 06:20:14;;;;;;;51.78;28.63;;;;;;;;;;5119889;27;20035;-63
2022/11/14 06:22:41;;;;;;;48.15;28.50;;;;;;;;;;5106004;27;20565;-64
2022/11/14 06:25:07;;;;;;;48.42;27.55;;;;;;;;;;5123934;27;20059;-63
2022/11/14 06:27:33;;;;;;;43.60;27.52;;;;;;;;;;5109220;27;20050;-64
2022/11/14 06:29:59;;;;;;;44.38;28.60;;;;;;;;;;5128455;27;20254;-64
2022/11/14 06:32:26;;;;;;;48.28;27.30;;;;;;;;;;5123951;27;20047;-64
2022/11/14 06:34:52;;;;;;;45.40;27.45;;;;;;;;;;5128620;27;20492;-64
2022/11/14 06:37:18;;;;;;;44.70;29.98;;;;;;;;;;5125408;27;20049;-64
2022/11/14 06:39:44;;;;;;;52.58;29.67;;;;;;;;;;5125293;27;20433;-64
2022/11/14 06:42:10;;;;;;;42.42;25.80;;;;;;;;;;5124559;27;20035;-64
2022/11/14 06:44:36;;;;;;;48.42;29.05;;;;;;;;;;5098286;27;20039;-64
2022/11/14 06:47:05;;;;;;;44.45;27.20;;;;;;;;;;5101675;27;20472;-64
2022/11/14 06:49:31;;;;;;;48.13;28.15;;;;;;;;;;5126975;27;20035;-64
2022/11/14 06:51:57;;;;;;;50.50;30.00;;;;;;;;;;5108775;27;20088;-64
2022/11/14 06:54:23;;;;;;;46.05;28.40;;;;;;;;;;5126006;27;20401;-64
2022/11/14 06:56:49;;;;;;;43.25;27.80;;;;;;;;;;5127051;27;20047;-64
2022/11/14 06:59:15;;;;;;;44.33;29.02;;;;;;;;;;5105608;27;20397;-64
2022/11/14 07:01:42;;;;;;;44.45;27.25;;;;;;;;;;5120812;27;20066;-64
2022/11/14 07:04:08;;;;;;;47.83;27.83;;;;;;;;;;5121034;27;20035;-65
2022/11/14 07:06:35;;;;;;;42.47;27.77;;;;;;;;;;5127565;27;20036;-65
2022/11/14 07:09:01;;;;;;;55.65;30.42;;;;;;;;;;5125811;27;20042;-64
2022/11/14 07:11:28;;;;;;;52.10;30.42;;;;;;;;;;5116031;27;20081;-64
2022/11/14 07:14:01;;;;;;;47.38;29.58;;;;;;;;;;5101802;27;20043;-64
2022/11/14 07:16:29;;;;;;;47.38;27.85;;;;;;;;;;5123951;27;20035;-65
2022/11/14 07:18:56;;;;;;;48.03;28.38;;;;;;;;;;5120642;27;20039;-64
2022/11/14 07:21:22;;;;;;;48.42;28.83;;;;;;;;;;5107194;27;20516;-64
2022/11/14 07:23:48;;;;;;;51.33;30.15;;;;;;;;;;5123763;27;20039;-64
2022/11/14 07:26:14;;;;;;;45.15;27.60;;;;;;;;;;5092125;27;20057;-64
2022/11/14 07:28:42;;;;;;;47.08;30.00;;;;;;;;;;5092694;27;20440;-64
2022/11/14 07:31:11;;;;;;;44.95;29.63;;;;;;;;;;5115858;27;20496;-64
2022/11/14 07:33:37;;;;;;;51.90;31.00;;;;;;;;;;5113897;27;20049;-64
2022/11/14 07:36:03;;;;;;;47.45;29.15;;;;;;;;;;5095228;27;20047;-64
2022/11/14 07:38:30;;;;;;;55.40;33.90;;;;;;;;;;5116939;27;20039;-65
2022/11/14 07:40:57;;;;;;;51.55;29.73;;;;;;;;;;5121017;27;20039;-64
2022/11/14 07:43:23;;;;;;;50.53;29.50;;;;;;;;;;5119406;27;20036;-64
2022/11/14 07:45:50;;;;;;;52.38;30.45;;;;;;;;;;5122055;27;20054;-64
2022/11/14 07:48:16;;;;;;;51.10;31.38;;;;;;;;;;5113317;27;20123;-64
2022/11/14 07:50:42;;;;;;;46.80;30.33;;;;;;;;;;5117895;27;20035;-64
2022/11/14 07:53:08;;;;;;;45.58;29.13;;;;;;;;;;5117071;27;20039;-64
2022/11/14 07:55:35;;;;;;;41.67;26.98;;;;;;;;;;5113790;27;21058;-64
2022/11/14 07:58:01;;;;;;;52.35;30.70;;;;;;;;;;5078261;28;20079;-64
2022/11/14 08:00:28;;;;;;;53.42;30.65;;;;;;;;;;5072774;28;20155;-64
2022/11/14 08:02:54;;;;;;;49.33;31.95;;;;;;;;;;5074851;28;20082;-64
2022/11/14 08:05:20;;;;;;;49.35;29.52;;;;;;;;;;5085312;28;20055;-64
2022/11/14 08:07:46;;;;;;;49.35;28.90;;;;;;;;;;5056289;28;20044;-64
2022/11/14 08:10:13;;;;;;;49.72;28.33;;;;;;;;;;5071700;28;20044;-64
2022/11/14 08:12:40;;;;;;;46.15;28.70;;;;;;;;;;5075294;28;20504;-64
2022/11/14 08:15:07;;;;;;;47.63;29.83;;;;;;;;;;5081751;28;20040;-64
2022/11/14 08:17:33;;;;;;;49.72;30.55;;;;;;;;;;5072036;28;20094;-64
2022/11/14 08:19:59;;;;;;;49.10;30.55;;;;;;;;;;5074379;28;20089;-64
2022/11/14 08:22:25;;;;;;;51.13;29.58;;;;;;;;;;5080850;28;20047;-64
2022/11/14 08:24:51;;;;;;;47.85;30.25;;;;;;;;;;5082873;28;20539;-64
2022/11/14 08:27:17;;;;;;;50.92;28.10;;;;;;;;;;5087296;28;20063;-63
2022/11/14 08:29:44;;;;;;;53.45;31.42;;;;;;;;;;5088942;28;20040;-63
2022/11/14 08:32:10;;;;;;;54.85;31.75;;;;;;;;;;5083595;28;20036;-64
2022/11/14 08:34:36;;;;;;;47.58;28.80;;;;;;;;;;5083910;28;20118;-64
2022/11/14 08:37:03;;;;;;;51.70;30.50;;;;;;;;;;5085573;28;20047;-64
2022/11/14 08:39:29;;;;;;;47.80;28.58;;;;;;;;;;5089948;28;20080;-64
2022/11/14 08:41:55;;;;;;;52.30;30.70;;;;;;;;;;5086891;28;20123;-64
2022/11/14 08:44:21;;;;;;;52.10;29.77;;;;;;;;;;5085282;28;20043;-64
2022/11/14 08:46:47;;;;;;;54.60;33.38;;;;;;;;;;5088241;28;20096;-64
2022/11/14 08:49:13;;;;;;;55.65;30.60;;;;;;;;;;5085360;28;20232;-64
2022/11/14 08:51:39;;;;;;;52.50;30.70;;;;;;;;;;5085342;28;20044;-64
2022/11/14 08:54:06;;;;;;;54.85;32.33;;;;;;;;;;5090710;28;20042;-64
2022/11/14 08:56:32;;;;;;;51.47;29.75;;;;;;;;;;5088257;27;20430;-64
2022/11/14 08:58:58;;;;;;;44.13;29.77;;;;;;;;;;5125896;27;20048;-64
2022/11/14 09:01:24;;;;;;;52.55;32.72;;;;;;;;;;5112709;27;20114;-64
2022/11/14 09:03:50;;;;;;;49.03;29.55;;;;;;;;;;5125759;27;20585;-64
2022/11/14 09:06:16;;;;;;;44.88;28.05;;;;;;;;;;5109675;27;20201;-64
2022/11/14 09:08:43;;;;;;;50.42;29.58;;;;;;;;;;5123774;27;20126;-64
2022/11/14 09:11:09;;;;;;;52.67;29.48;;;;;;;;;;5127255;27;20091;-64
2022/11/14 09:13:35;;;;;;;57.55;32.15;;;;;;;;;;5125347;27;20122;-64
2022/11/14 09:16:01;;;;;;;55.53;30.40;;;;;;;;;;5126096;27;20035;-64
2022/11/14 09:18:28;;;;;;;53.05;31.70;;;;;;;;;;5126953;27;20035;-63
2022/11/14 09:20:59;;;;;;;55.55;31.25;;;;;;;;;;5107568;27;20111;-64
2022/11/14 09:23:25;;;;;;;43.97;28.38;;;;;;;;;;5108252;27;20040;-64
2022/11/14 09:25:53;;;;;;;51.45;29.38;;;;;;;;;;5125018;27;20092;-64
2022/11/14 09:28:20;;;;;;;47.78;29.63;;;;;;;;;;5128623;27;20043;-64
2022/11/14 09:30:47;;;;;;;52.70;29.50;;;;;;;;;;5117076;27;20112;-64
2022/11/14 09:33:13;;;;;;;52.53;28.27;;;;;;;;;;5107231;27;20640;-64
2022/11/14 09:35:39;;;;;;;45.95;27.40;;;;;;;;;;5126151;27;20032;-64
2022/11/14 09:38:09;;;;;;;47.60;29.58;;;;;;;;;;5125447;27;20491;-64
2022/11/14 09:40:45;;;;;;;53.85;29.15;;;;;;;;;;5126423;27;20027;-64
2022/11/14 09:43:19;;;;;;;50.97;29.52;;;;;;;;;;5120471;27;20387;-63
2022/11/14 09:45:48;;;;;;;48.80;29.10;;;;;;;;;;5109526;27;20035;-64
2022/11/14 09:48:15;;;;;;;44.70;28.88;;;;;;;;;;5124929;27;20049;-64
2022/11/14 09:50:47;;;;;;;47.28;29.00;;;;;;;;;;5127923;27;20597;-64
2022/11/14 09:53:16;;;;;;;43.67;27.42;;;;;;;;;;5122747;27;20197;-64
2022/11/14 09:55:42;;;;;;;52.97;29.30;;;;;;;;;;5105735;27;20043;-64
2022/11/14 09:58:12;;;;;;;45.53;29.38;;;;;;;;;;5125636;27;20107;-64
2022/11/14 10:00:44;;;;;;;54.53;29.08;;;;;;;;;;5126561;27;20047;-64
2022/11/14 10:03:16;;;;;;;52.17;30.67;;;;;;;;;;5106609;27;20050;-64
2022/11/14 10:06:01;;;;;;;48.65;28.20;;;;;;;;;;5124523;27;20043;-64
2022/11/14 10:08:46;;;;;;;45.30;26.17;;;;;;;;;;5106266;27;20039;-64
2022/11/14 10:11:19;;;;;;;45.10;27.55;;;;;;;;;;5121412;27;20057;-63
2022/11/14 10:13:45;;;;;;;44.80;27.05;;;;;;;;;;5125810;27;20045;-64
2022/11/14 10:16:26;;;;;;;42.15;27.40;;;;;;;;;;5126124;27;20118;-64
2022/11/14 10:19:11;;;;;;;43.60;26.58;;;;;;;;;;5125936;27;20564;-64
2022/11/14 10:21:43;;;;;;;48.33;27.98;;;;;;;;;;5128353;27;20031;-64
2022/11/14 10:24:25;;;;;;;49.50;26.63;;;;;;;;;;5123487;27;20066;-63
2022/11/14 10:27:00;;;;;;;46.17;27.17;;;;;;;;;;5124697;27;20089;-64
2022/11/14 10:29:37;;;;;;;45.25;27.95;;;;;;;;;;5122917;27;20096;-64
2022/11/14 10:32:21;;;;;;;43.25;23.10;;;;;;;;;;5126451;27;20717;-65
2022/11/14 10:34:59;;;;;;;41.40;26.88;;;;;;;;;;5121437;27;20038;-64
2022/11/14 10:37:44;;;;;;;44.90;27.27;;;;;;;;;;5124947;27;20125;-64
2022/11/14 10:40:19;;;;;;;44.17;28.17;;;;;;;;;;5120644;27;20078;-63
2022/11/14 10:42:47;;;;;;;44.15;27.15;;;;;;;;;;5129116;27;20102;-64
2022/11/14 10:45:22;;;;;;;37.17;24.30;;;;;;;;;;5107284;27;20046;-64
2022/11/14 10:47:59;;;;;;;39.55;25.90;;;;;;;;;;5125221;27;20110;-64
2022/11/14 10:50:36;;;;;;;40.50;25.92;;;;;;;;;;5123970;27;20100;-64
2022/11/14 10:53:06;;;;;;;48.03;28.55;;;;;;;;;;5089093;28;20051;-64
2022/11/14 10:55:32;;;;;;;45.20;28.77;;;;;;;;;;5122508;27;20355;-64
2022/11/14 10:57:59;;;;;;;45.17;25.65;;;;;;;;;;5109060;27;20094;-64
2022/11/14 11:00:26;;;;;;;44.63;27.35;;;;;;;;;;5105263;27;20042;-64
2022/11/14 11:02:54;;;;;;;39.40;24.77;;;;;;;;;;5125186;27;20396;-64
2022/11/14 11:05:22;;;;;;;38.53;23.88;;;;;;;;;;5121313;27;20505;-64
2022/11/14 11:13:36;;;;;;;35.22;22.80;;;;;;;;;;5123249;27;20094;-64
2022/11/14 11:16:03;;;;;;;39.83;23.92;;;;;;;;;;5117357;27;20036;-65
2022/11/14 11:18:31;;;;;;;35.10;22.42;;;;;;;;;;5121779;27;20523;-64
2022/11/14 11:21:02;;;;;;;38.35;24.30;;;;;;;;;;5115373;27;20074;-64
2022/11/14 11:23:28;;;;;;;39.72;25.20;;;;;;;;;;5122331;27;20456;-64
2022/11/14 11:26:04;;;;;;;36.10;22.45;;;;;;;;;;5104388;27;20048;-64
2022/11/14 11:28:31;;;;;;;44.80;25.92;;;;;;;;;;5122092;27;20140;-64
2022/11/14 11:30:59;;;;;;;38.15;24.08;;;;;;;;;;5090334;27;20049;-64
2022/11/14 11:33:39;;;;;;;35.92;22.85;;;;;;;;;;5115499;27;20046;-64
2022/11/14 11:36:17;;;;;;;36.38;23.27;;;;;;;;;;5122019;27;20032;-64
2022/11/14 11:38:43;;;;;;;37.15;21.67;;;;;;;;;;5103555;27;20032;-64
2022/11/14 11:41:13;;;;;;;35.67;22.25;;;;;;;;;;5125174;27;20326;-64
2022/11/14 11:43:49;;;;;;;34.90;23.10;;;;;;;;;;5121010;27;20080;-65
2022/11/14 11:46:22;;;;;;;34.85;22.48;;;;;;;;;;5119231;27;20460;-64
2022/11/14 11:48:52;;;;;;;35.83;22.95;;;;;;;;;;5123453;27;20042;-64
2022/11/14 11:51:20;;;;;;;35.42;23.50;;;;;;;;;;5122310;27;20057;-64
2022/11/14 11:53:50;;;;;;;35.63;23.40;;;;;;;;;;5124433;27;20039;-64
2022/11/14 11:56:19;;;;;;;38.92;23.27;;;;;;;;;;5125548;27;20114;-64
2022/11/14 11:58:49;;;;;;;35.10;22.67;;;;;;;;;;5125134;27;20138;-64
2022/11/14 12:01:16;;;;;;;35.85;24.35;;;;;;;;;;5123339;27;20054;-64
2022/11/14 12:03:46;;;;;;;37.80;22.77;;;;;;;;;;5123238;27;20045;-64
2022/11/14 12:06:12;;;;;;;33.00;22.40;;;;;;;;;;5123722;27;20035;-64
2022/11/14 12:08:56;;;;;;;36.67;23.77;;;;;;;;;;5124983;28;20032;-64
2022/11/14 12:11:25;;;;;;;35.25;23.15;;;;;;;;;;5123695;28;20035;-63
2022/11/14 12:14:06;;;;;;;38.03;23.67;;;;;;;;;;5117042;28;20091;-63
2022/11/14 12:16:51;;;;;;;34.90;22.30;;;;;;;;;;5114201;28;20035;-63
2022/11/14 12:19:36;;;;;;;34.25;23.67;;;;;;;;;;5117206;28;20031;-63
2022/11/14 12:22:05;;;;;;;29.95;21.17;;;;;;;;;;5125384;28;20460;-65
2022/11/14 12:24:49;;;;;;;33.40;22.48;;;;;;;;;;5123119;28;20046;-65
2022/11/14 12:27:18;;;;;;;52.35;23.13;;;;;;;;;;5122316;28;20496;-64
2022/11/14 12:29:53;;;;;;;45.00;24.55;;;;;;;;;;5125376;28;20121;-65
2022/11/14 12:32:28;;;;;;;67.38;26.90;;;;;;;;;;5119470;28;20375;-64
2022/11/14 12:34:54;;;;;;;34.92;22.25;;;;;;;;;;5123140;28;20104;-65
2022/11/14 12:37:22;;;;;;;33.45;22.90;;;;;;;;;;5108241;28;20035;-65
2022/11/14 12:39:55;;;;;;;32.45;21.75;;;;;;;;;;5122892;28;20475;-65
2022/11/14 12:42:22;;;;;;;34.75;22.00;;;;;;;;;;5124651;28;20500;-64
2022/11/14 12:44:48;;;;;;;33.28;22.20;;;;;;;;;;5123891;28;20185;-65
2022/11/14 12:47:16;;;;;;;30.67;21.02;;;;;;;;;;5123644;28;20039;-64
2022/11/14 12:49:48;;;;;;;40.38;23.90;;;;;;;;;;5122055;28;20039;-65
2022/11/14 12:52:33;;;;;;;33.58;22.52;;;;;;;;;;5117916;28;20043;-64
2022/11/14 12:54:59;;;;;;;35.00;22.50;;;;;;;;;;5119726;28;20050;-65
2022/11/14 12:57:49;;;;;;;33.92;23.05;;;;;;;;;;5123477;28;20150;-65
2022/11/14 13:00:16;;;;;;;32.25;21.50;;;;;;;;;;5124870;28;20606;-65
2022/11/14 13:02:49;;;;;;;33.15;21.13;;;;;;;;;;5121511;28;20035;-65
2022/11/14 13:05:23;;;;;;;32.28;21.85;;;;;;;;;;5123783;28;20053;-65
2022/11/14 13:07:49;;;;;;;31.75;21.98;;;;;;;;;;5106210;28;20024;-64
2022/11/14 13:10:29;;;;;;;37.25;21.90;;;;;;;;;;5126068;28;20051;-65
2022/11/14 13:22:07;;;;;;;32.15;23.20;;;;;;;;;;5127016;27;20035;-65
2022/11/14 13:24:52;;;;;;;31.60;21.40;;;;;;;;;;5129427;27;20078;-65
2022/11/14 13:27:31;;;;;;;36.17;22.70;;;;;;;;;;5123164;27;20046;-65
2022/11/14 13:29:59;;;;;;;32.20;20.48;;;;;;;;;;5116299;27;20039;-65
2022/11/14 13:32:40;;;;;;;30.55;21.33;;;;;;;;;;5121637;27;20047;-65
2022/11/14 13:35:13;;;;;;;28.02;19.92;;;;;;;;;;5124086;27;20146;-64
2022/11/14 13:37:57;;;;;;;29.40;19.98;;;;;;;;;;5131430;27;20035;-64
2022/11/14 13:40:23;;;;;;;26.42;19.30;;;;;;;;;;5122399;27;20554;-65
2022/11/14 13:42:59;;;;;;;28.88;21.08;;;;;;;;;;5128335;27;20175;-65
2022/11/14 13:45:48;;;;;;;29.13;20.65;;;;;;;;;;5124315;27;20823;-65
2022/11/14 13:48:22;;;;;;;26.65;19.45;;;;;;;;;;5116549;27;20100;-66
2022/11/14 13:50:50;;;;;;;27.73;20.02;;;;;;;;;;5126964;27;20393;-65
2022/11/14 13:53:18;;;;;;;28.98;20.90;;;;;;;;;;5121790;27;20047;-64
2022/11/14 13:55:48;;;;;;;25.70;20.30;;;;;;;;;;5119119;27;20160;-64
2022/11/14 13:58:32;;;;;;;27.45;19.52;;;;;;;;;;5116118;27;20055;-64
2022/11/14 14:01:07;;;;;;;28.58;20.42;;;;;;;;;;5127310;27;20497;-64
2022/11/14 14:03:36;;;;;;;28.73;21.38;;;;;;;;;;5127720;27;20130;-64
2022/11/14 14:06:35;;;;;;;28.85;20.75;;;;;;;;;;5125518;27;20039;-64
2022/11/14 14:09:07;;;;;;;28.25;20.85;;;;;;;;;;5100735;27;20043;-65
2022/11/14 14:11:33;;;;;;;27.73;20.33;;;;;;;;;;5118950;27;20455;-64
2022/11/14 14:14:11;;;;;;;30.40;20.65;;;;;;;;;;5126323;27;20051;-64
2022/11/14 14:16:40;;;;;;;27.55;21.00;;;;;;;;;;5118418;27;20365;-64
2022/11/14 14:19:06;;;;;;;30.30;19.02;;;;;;;;;;5115984;27;20071;-65
2022/11/14 14:21:32;;;;;;;26.20;19.35;;;;;;;;;;5129952;27;20667;-64
2022/11/14 14:24:16;;;;;;;29.70;20.88;;;;;;;;;;5125999;27;20142;-64
2022/11/14 14:26:42;;;;;;;29.38;20.50;;;;;;;;;;5128166;27;20075;-64
2022/11/14 14:29:15;;;;;;;28.60;20.15;;;;;;;;;;5126973;27;20083;-64
2022/11/14 14:31:41;;;;;;;30.10;19.95;;;;;;;;;;5118186;27;20114;-65
2022/11/14 14:34:21;;;;;;;31.42;19.23;;;;;;;;;;5128289;27;20039;-65
2022/11/14 14:36:54;;;;;;;26.90;18.85;;;;;;;;;;5088426;28;20365;-65
2022/11/14 14:39:24;;;;;;;28.58;19.55;;;;;;;;;;5125765;27;20042;-64